createdAt,value
2017-10-05T00:01:30.223Z,2.83
2017-10-05T00:03:58.533Z,2.87
2017-10-05T00:06:26.921Z,2.20
2017-10-05T00:08:55.238Z,2.70
2017-10-05T00:11:23.829Z,1.90
2017-10-05T00:13:52.133Z,2.33
2017-10-05T00:16:20.578Z,3.17
2017-10-05T00:18:49.020Z,3.00
2017-10-05T00:21:17.450Z,2.63
2017-10-05T00:23:45.777Z,2.80
2017-10-05T00:26:14.128Z,2.87
2017-10-05T00:28:42.449Z,2.60
2017-10-05T00:31:10.850Z,3.20
2017-10-05T00:33:39.296Z,3.70
2017-10-05T00:36:07.643Z,3.00
2017-10-05T00:38:35.994Z,3.57
2017-10-05T00:41:04.373Z,3.40
2017-10-05T00:43:32.697Z,3.23
2017-10-05T00:46:01.033Z,3.80
2017-10-05T00:48:29.450Z,3.50
2017-10-05T00:50:57.989Z,3.70
2017-10-05T00:53:29.188Z,3.53
2017-10-05T00:55:57.498Z,3.40
2017-10-05T00:58:25.820Z,4.07
2017-10-05T01:00:54.318Z,4.23
2017-10-05T01:03:22.645Z,4.53
2017-10-05T01:05:51.089Z,4.13
2017-10-05T01:08:19.747Z,4.40
2017-10-05T01:10:48.097Z,5.20
2017-10-05T01:13:16.479Z,4.40
2017-10-05T01:15:44.859Z,4.80
2017-10-05T01:18:13.264Z,4.90
2017-10-05T01:20:41.594Z,4.13
2017-10-05T01:23:09.976Z,5.27
2017-10-05T01:25:38.300Z,5.27
2017-10-05T01:28:07.240Z,5.23
2017-10-05T01:30:35.557Z,4.67
2017-10-05T01:33:03.897Z,4.97
2017-10-05T01:35:32.249Z,5.40
2017-10-05T01:38:00.620Z,6.20
2017-10-05T01:40:29.055Z,6.10
2017-10-05T01:42:57.384Z,6.33
2017-10-05T01:45:25.738Z,7.20
2017-10-05T01:47:54.198Z,5.37
2017-10-05T01:50:22.529Z,6.30
2017-10-05T01:52:50.850Z,5.83
2017-10-05T01:55:19.177Z,6.07
2017-10-05T01:57:47.506Z,6.50
2017-10-05T02:00:15.960Z,6.20
2017-10-05T02:02:44.284Z,6.63
2017-10-05T02:05:12.645Z,6.10
2017-10-05T02:07:40.954Z,6.37
2017-10-05T02:10:09.409Z,7.10
2017-10-05T02:12:37.767Z,6.43
2017-10-05T02:15:06.078Z,6.30
2017-10-05T02:17:34.663Z,5.27
2017-10-05T02:20:03.008Z,5.73
2017-10-05T02:22:31.341Z,6.27
2017-10-05T02:24:59.687Z,6.33
2017-10-05T02:27:28.009Z,5.97
2017-10-05T02:29:56.552Z,5.60
2017-10-05T02:32:24.869Z,6.53
2017-10-05T02:34:53.205Z,6.60
2017-10-05T02:37:21.544Z,5.47
2017-10-05T02:39:49.888Z,5.63
2017-10-05T02:42:18.257Z,5.67
2017-10-05T02:44:46.676Z,5.00
2017-10-05T02:47:15.017Z,5.00
2017-10-05T02:49:43.349Z,5.50
2017-10-05T02:52:11.669Z,5.77
2017-10-05T02:54:40.089Z,5.40
2017-10-05T02:57:08.412Z,5.10
2017-10-05T02:59:36.763Z,5.57
2017-10-05T03:02:05.311Z,5.80
2017-10-05T03:04:33.691Z,4.93
2017-10-05T03:07:02.080Z,5.20
2017-10-05T03:09:30.460Z,5.50
2017-10-05T03:11:59.597Z,6.40
2017-10-05T03:14:27.905Z,5.70
2017-10-05T03:16:56.238Z,4.30
2017-10-05T03:19:24.572Z,5.03
2017-10-05T03:21:53.257Z,5.50
2017-10-05T03:24:21.663Z,5.97
2017-10-05T03:26:50.121Z,5.53
2017-10-05T03:29:18.515Z,4.30
2017-10-05T03:31:46.916Z,4.40
2017-10-05T03:34:15.220Z,4.97
2017-10-05T03:36:43.573Z,6.40
2017-10-05T03:39:12.027Z,4.73
2017-10-05T03:41:40.480Z,4.33
2017-10-05T03:44:08.814Z,4.50
2017-10-05T03:46:37.117Z,5.10
2017-10-05T03:49:05.505Z,3.20
2017-10-05T03:51:33.929Z,3.80
2017-10-05T03:54:02.231Z,3.20
2017-10-05T03:56:30.550Z,4.20
2017-10-05T03:58:58.868Z,3.20
2017-10-05T04:01:27.348Z,3.17
2017-10-05T04:03:55.723Z,3.33
2017-10-05T04:06:24.048Z,3.03
2017-10-05T04:08:52.482Z,2.93
2017-10-05T04:11:20.837Z,3.33
2017-10-05T04:13:49.346Z,3.37
2017-10-05T04:16:17.782Z,2.20
2017-10-05T04:18:46.130Z,3.73
2017-10-05T04:21:15.264Z,2.77
2017-10-05T04:23:43.676Z,1.93
2017-10-05T04:26:12.040Z,2.43
2017-10-05T04:28:40.476Z,2.53
2017-10-05T04:31:08.856Z,2.20
2017-10-05T04:33:37.836Z,2.10
2017-10-05T04:36:06.152Z,2.37
2017-10-05T04:38:34.566Z,2.23
2017-10-05T04:41:02.993Z,1.60
2017-10-05T04:43:31.484Z,1.83
2017-10-05T04:45:59.826Z,2.10
2017-10-05T04:48:28.137Z,2.67
2017-10-05T04:50:56.516Z,1.87
2017-10-05T04:53:24.835Z,1.77
2017-10-05T04:55:53.281Z,2.00
2017-10-05T04:58:21.677Z,1.97
2017-10-05T05:00:50.137Z,2.10
2017-10-05T05:03:18.489Z,1.73
2017-10-05T05:05:46.817Z,2.10
2017-10-05T05:08:15.293Z,2.43
2017-10-05T05:10:43.798Z,2.47
2017-10-05T05:13:12.211Z,1.70
2017-10-05T05:15:40.633Z,1.57
2017-10-05T05:18:08.984Z,2.07
2017-10-05T05:20:37.363Z,2.40
2017-10-05T05:23:05.765Z,2.07
2017-10-05T05:25:34.325Z,2.37
2017-10-05T05:28:02.671Z,2.30
2017-10-05T05:33:06.034Z,1.83
2017-10-05T05:35:34.948Z,2.63
2017-10-05T05:38:03.393Z,2.93
2017-10-05T05:40:31.861Z,2.03
2017-10-05T05:43:00.216Z,2.17
2017-10-05T05:45:28.558Z,2.50
2017-10-05T05:47:56.965Z,2.20
2017-10-05T05:50:25.620Z,2.33
2017-10-05T05:52:54.161Z,2.10
2017-10-05T05:55:22.605Z,2.37
2017-10-05T05:57:51.075Z,2.37
2017-10-05T06:00:19.562Z,3.00
2017-10-05T06:02:47.982Z,2.43
2017-10-05T06:05:16.442Z,3.10
2017-10-05T06:07:44.851Z,2.90
2017-10-05T06:10:14.025Z,2.90
2017-10-05T06:12:42.364Z,2.40
2017-10-05T06:15:10.836Z,2.60
2017-10-05T06:17:39.549Z,2.10
2017-10-05T06:20:07.881Z,3.20
2017-10-05T06:22:36.256Z,2.60
2017-10-05T06:25:04.737Z,3.53
2017-10-05T06:27:33.042Z,2.70
2017-10-05T06:30:01.628Z,2.30
2017-10-05T06:32:30.019Z,3.13
2017-10-05T06:34:58.500Z,2.97
2017-10-05T06:37:27.009Z,2.93
2017-10-05T06:39:55.447Z,2.50
2017-10-05T06:42:23.982Z,2.57
2017-10-05T06:44:52.373Z,2.50
2017-10-05T06:47:20.788Z,2.90
2017-10-05T06:49:49.159Z,2.20
2017-10-05T06:52:17.580Z,2.90
2017-10-05T06:54:46.042Z,2.70
2017-10-05T06:57:14.442Z,3.27
2017-10-05T06:59:42.973Z,2.67
2017-10-05T07:02:11.434Z,3.07
2017-10-05T07:04:39.861Z,2.07
2017-10-05T07:07:08.229Z,2.57
2017-10-05T07:09:36.574Z,2.40
2017-10-05T07:12:04.955Z,2.30
2017-10-05T07:14:33.429Z,2.43
2017-10-05T07:17:02.139Z,1.80
2017-10-05T07:19:30.550Z,3.27
2017-10-05T07:21:59.141Z,2.53
2017-10-05T07:24:27.580Z,2.67
2017-10-05T07:26:56.231Z,2.73
2017-10-05T07:29:24.653Z,2.13
2017-10-05T07:31:53.285Z,2.10
2017-10-05T07:34:21.678Z,2.40
2017-10-05T07:36:50.715Z,2.30
2017-10-05T07:39:19.727Z,2.20
2017-10-05T07:41:48.307Z,1.80
2017-10-05T07:44:16.650Z,2.43
2017-10-05T07:46:45.096Z,1.90
2017-10-05T07:49:13.641Z,1.90
2017-10-05T07:51:42.298Z,2.00
2017-10-05T07:54:10.695Z,2.00
2017-10-05T07:56:39.779Z,2.57
2017-10-05T07:59:08.128Z,1.77
2017-10-05T08:01:36.580Z,1.77
2017-10-05T08:04:05.158Z,2.17
2017-10-05T08:06:33.736Z,1.60
2017-10-05T08:09:02.859Z,2.40
2017-10-05T08:11:31.411Z,1.87
2017-10-05T08:13:59.824Z,2.40
2017-10-05T08:16:28.239Z,2.40
2017-10-05T08:18:56.686Z,2.20
2017-10-05T08:21:25.093Z,3.00
2017-10-05T08:23:53.716Z,2.40
2017-10-05T08:26:22.250Z,1.90
2017-10-05T08:28:50.806Z,2.37
2017-10-05T08:31:19.567Z,1.80
2017-10-05T08:33:48.149Z,1.60
2017-10-05T08:36:16.563Z,2.13
2017-10-05T08:38:44.945Z,1.60
2017-10-05T08:41:13.404Z,1.30
2017-10-05T08:43:41.828Z,2.33
2017-10-05T08:46:13.351Z,2.07
2017-10-05T08:48:42.834Z,2.30
2017-10-05T08:51:11.432Z,2.20
2017-10-05T08:53:39.883Z,1.80
2017-10-05T08:56:08.349Z,2.87
2017-10-05T08:58:36.676Z,2.10
2017-10-05T09:01:05.060Z,1.63
2017-10-05T09:03:33.621Z,1.47
2017-10-05T09:06:02.193Z,1.80
2017-10-05T09:08:30.802Z,1.20
2017-10-05T09:11:00.171Z,1.60
2017-10-05T09:13:28.734Z,2.07
2017-10-05T09:15:57.092Z,1.80
2017-10-05T09:18:25.630Z,1.77
2017-10-05T09:20:54.007Z,2.70
2017-10-05T09:23:22.628Z,1.97
2017-10-05T09:25:51.062Z,1.87
2017-10-05T09:28:19.564Z,1.10
2017-10-05T09:30:48.850Z,1.60
2017-10-05T09:33:17.481Z,1.30
2017-10-05T09:35:46.045Z,1.30
2017-10-05T09:38:14.649Z,1.33
2017-10-05T09:40:45.268Z,3.63
2017-10-05T09:43:14.503Z,1.27
2017-10-05T09:45:43.134Z,1.57
2017-10-05T09:48:11.678Z,1.20
2017-10-05T09:50:40.276Z,1.03
2017-10-05T09:53:08.841Z,1.47
2017-10-05T09:55:37.304Z,1.60
2017-10-05T09:58:05.763Z,1.43
2017-10-05T10:00:34.164Z,1.30
2017-10-05T10:03:02.922Z,1.07
2017-10-05T10:05:31.346Z,1.63
2017-10-05T10:08:00.128Z,1.40
2017-10-05T10:10:28.734Z,2.17
2017-10-05T10:12:58.021Z,1.00
2017-10-05T10:15:26.482Z,1.30
2017-10-05T10:17:54.874Z,1.50
2017-10-05T10:20:23.280Z,1.40
2017-10-05T10:22:51.763Z,1.70
2017-10-05T10:25:20.279Z,1.30
2017-10-05T10:27:48.747Z,1.60
2017-10-05T10:30:17.337Z,1.77
2017-10-05T10:32:45.751Z,1.30
2017-10-05T10:35:14.194Z,1.57
2017-10-05T10:37:42.633Z,1.60
2017-10-05T10:40:11.254Z,1.30
2017-10-05T10:42:39.810Z,0.90
2017-10-05T10:45:08.214Z,1.70
2017-10-05T10:47:36.806Z,1.80
2017-10-05T10:50:05.774Z,1.30
2017-10-05T10:52:34.258Z,1.37
2017-10-05T10:55:02.816Z,2.37
2017-10-05T10:57:31.238Z,1.67
2017-10-05T10:59:59.653Z,1.03
2017-10-05T11:02:29.111Z,1.50
2017-10-05T11:04:57.581Z,1.80
2017-10-05T11:07:26.069Z,1.30
2017-10-05T11:09:54.544Z,1.67
2017-10-05T11:12:22.993Z,1.27
2017-10-05T11:14:51.489Z,1.27
2017-10-05T11:17:20.233Z,1.33
2017-10-05T11:19:48.755Z,1.00
2017-10-05T11:22:17.563Z,1.60
2017-10-05T11:24:46.394Z,1.20
2017-10-05T11:27:14.895Z,2.63
2017-10-05T11:29:43.424Z,1.40
2017-10-05T11:32:11.884Z,3.40
2017-10-05T11:34:40.465Z,3.83
2017-10-05T11:37:09.067Z,1.23
2017-10-05T11:39:37.524Z,1.10
2017-10-05T11:42:05.979Z,3.53
2017-10-05T11:44:34.401Z,2.50
2017-10-05T11:47:02.812Z,1.33
2017-10-05T11:49:31.217Z,1.23
2017-10-05T11:52:00.841Z,1.70
2017-10-05T11:54:29.209Z,1.10
2017-10-05T11:56:57.769Z,2.70
2017-10-05T11:59:26.354Z,1.20
2017-10-05T12:01:55.102Z,1.03
2017-10-05T12:04:23.861Z,1.33
2017-10-05T12:06:52.259Z,1.20
2017-10-05T12:09:21.172Z,1.50
2017-10-05T12:11:49.751Z,1.60
2017-10-05T12:14:18.256Z,2.87
2017-10-05T12:16:46.909Z,1.63
2017-10-05T12:19:15.436Z,1.73
2017-10-05T12:21:44.138Z,1.60
2017-10-05T12:24:12.490Z,2.27
2017-10-05T12:26:41.120Z,1.70
2017-10-05T12:29:09.840Z,1.93
2017-10-05T12:31:38.221Z,1.20
2017-10-05T12:34:06.552Z,1.73
2017-10-05T12:36:35.023Z,1.70
2017-10-05T12:39:04.246Z,1.50
2017-10-05T12:41:32.687Z,1.03
2017-10-05T12:44:01.078Z,1.83
2017-10-05T12:46:29.521Z,1.40
2017-10-05T12:48:58.030Z,1.50
2017-10-05T12:51:26.480Z,3.50
2017-10-05T12:53:54.913Z,1.60
2017-10-05T12:56:23.245Z,1.37
2017-10-05T12:58:51.843Z,1.40
2017-10-05T13:01:20.366Z,1.07
2017-10-05T13:03:48.952Z,1.37
2017-10-05T13:06:17.464Z,1.47
2017-10-05T13:08:45.829Z,1.10
2017-10-05T13:11:14.433Z,1.90
2017-10-05T13:13:42.844Z,1.30
2017-10-05T13:16:11.232Z,1.47
2017-10-05T13:18:39.692Z,1.40
2017-10-05T13:21:08.140Z,1.73
2017-10-05T13:23:36.727Z,1.47
2017-10-05T13:26:05.126Z,1.20
2017-10-05T13:28:33.708Z,0.90
2017-10-05T13:33:46.543Z,1.10
2017-10-05T13:36:15.046Z,1.07
2017-10-05T13:38:43.656Z,1.13
2017-10-05T13:41:12.065Z,1.30
2017-10-05T13:43:40.529Z,1.20
2017-10-05T13:46:09.053Z,1.10
2017-10-05T13:48:37.556Z,1.77
2017-10-05T13:51:05.981Z,1.03
2017-10-05T13:53:34.411Z,1.00
2017-10-05T13:56:02.948Z,1.83
2017-10-05T13:58:31.357Z,1.07
2017-10-05T14:00:59.813Z,1.23
2017-10-05T14:03:28.194Z,1.13
2017-10-05T14:05:56.569Z,1.57
2017-10-05T14:08:25.105Z,1.30
2017-10-05T14:10:54.032Z,0.93
2017-10-05T14:13:23.074Z,1.30
2017-10-05T14:15:52.841Z,1.20
2017-10-05T14:18:21.334Z,1.53
2017-10-05T14:20:49.860Z,1.23
2017-10-05T14:23:18.577Z,1.23
2017-10-05T14:25:48.659Z,1.23
2017-10-05T14:28:20.320Z,1.00
2017-10-05T14:30:49.617Z,1.90
2017-10-05T14:33:18.237Z,1.20
2017-10-05T14:35:46.792Z,1.50
2017-10-05T14:38:15.390Z,1.10
2017-10-05T14:40:44.292Z,1.00
2017-10-05T14:43:12.694Z,1.23
2017-10-05T14:45:41.094Z,1.10
2017-10-05T14:48:10.059Z,1.30
2017-10-05T14:50:38.514Z,1.87
2017-10-05T14:53:06.837Z,1.00
2017-10-05T14:55:35.241Z,1.50
2017-10-05T14:58:03.772Z,1.20
2017-10-05T15:00:32.167Z,1.30
2017-10-05T15:03:01.001Z,1.23
2017-10-05T15:05:29.599Z,1.77
2017-10-05T15:07:57.959Z,1.20
2017-10-05T15:10:26.419Z,1.30
2017-10-05T15:12:54.869Z,1.47
2017-10-05T15:15:23.498Z,1.30
2017-10-05T15:17:51.902Z,1.30
2017-10-05T15:20:20.562Z,1.00
2017-10-05T15:22:49.168Z,1.63
2017-10-05T15:25:17.731Z,1.10
2017-10-05T15:27:46.343Z,1.37
2017-10-05T15:30:14.791Z,1.70
2017-10-05T15:32:43.234Z,1.20
2017-10-05T15:35:11.687Z,1.53
2017-10-05T15:37:40.223Z,1.27
2017-10-05T15:40:08.696Z,1.60
2017-10-05T15:42:37.114Z,1.67
2017-10-05T15:45:05.530Z,1.40
2017-10-05T15:47:33.995Z,1.40
2017-10-05T15:50:02.985Z,1.43
2017-10-05T15:52:31.859Z,1.50
2017-10-05T15:55:00.394Z,1.33
2017-10-05T15:57:28.872Z,2.03
2017-10-05T15:59:57.551Z,2.07
2017-10-05T16:02:26.050Z,2.63
2017-10-05T16:04:56.992Z,2.60
2017-10-05T16:07:26.433Z,2.40
2017-10-05T16:09:54.975Z,3.00
2017-10-05T16:12:23.676Z,4.40
2017-10-05T16:14:52.582Z,2.13
2017-10-05T16:17:23.584Z,1.83
2017-10-05T16:19:52.270Z,2.83
2017-10-05T16:22:21.084Z,1.70
2017-10-05T16:24:49.798Z,3.40
2017-10-05T16:27:18.324Z,2.40
2017-10-05T16:29:47.135Z,4.13
2017-10-05T16:32:15.562Z,2.63
2017-10-05T16:34:44.005Z,2.00
2017-10-05T16:37:12.388Z,2.47
2017-10-05T16:39:40.839Z,5.97
2017-10-05T16:42:09.224Z,1.47
2017-10-05T16:44:38.689Z,4.03
2017-10-05T16:47:07.592Z,2.03
2017-10-05T16:49:36.112Z,2.33
2017-10-05T16:52:04.645Z,1.50
2017-10-05T16:54:33.184Z,2.20
2017-10-05T16:57:02.587Z,1.60
2017-10-05T16:59:31.105Z,3.60
2017-10-05T17:01:59.590Z,2.60
2017-10-05T17:04:27.955Z,2.60
2017-10-05T17:06:56.568Z,6.87
2017-10-05T17:09:25.410Z,3.67
2017-10-05T17:11:54.466Z,2.83
2017-10-05T17:14:25.140Z,2.83
2017-10-05T17:16:53.709Z,3.23
2017-10-05T17:19:22.308Z,4.17
2017-10-05T17:21:50.728Z,3.57
2017-10-05T17:24:19.264Z,2.80
2017-10-05T17:26:47.722Z,1.77
2017-10-05T17:29:16.085Z,3.23
2017-10-05T17:31:44.638Z,2.53
2017-10-05T17:34:13.077Z,2.30
2017-10-05T17:36:41.639Z,3.07
2017-10-05T17:39:10.131Z,2.00
2017-10-05T17:41:38.525Z,1.93
2017-10-05T17:44:06.929Z,2.57
2017-10-05T17:46:35.558Z,1.97
2017-10-05T17:49:04.041Z,1.93
2017-10-05T17:51:32.428Z,1.70
2017-10-05T17:54:01.155Z,1.70
2017-10-05T17:56:29.606Z,1.73
2017-10-05T17:58:58.151Z,2.80
2017-10-05T18:01:26.566Z,1.77
2017-10-05T18:03:55.036Z,3.10
2017-10-05T18:06:23.513Z,2.03
2017-10-05T18:08:51.853Z,2.37
2017-10-05T18:11:20.394Z,2.50
2017-10-05T18:13:49.879Z,2.20
2017-10-05T18:16:18.449Z,2.63
2017-10-05T18:18:46.883Z,2.10
2017-10-05T18:21:18.078Z,2.53
2017-10-05T18:26:19.083Z,3.10
2017-10-05T18:28:48.071Z,2.87
2017-10-05T18:31:16.498Z,3.60
2017-10-05T18:33:45.130Z,3.13
2017-10-05T18:36:17.690Z,3.23
2017-10-05T18:38:46.771Z,3.30
2017-10-05T18:43:50.931Z,3.40
2017-10-05T18:55:08.728Z,2.70
2017-10-05T19:13:28.791Z,3.30
2017-10-05T19:50:44.660Z,2.67
2017-10-05T20:02:06.576Z,3.10
2017-10-05T20:07:20.980Z,2.90
2017-10-05T20:15:37.627Z,6.37
2017-10-05T21:02:56.993Z,3.70
2017-10-05T21:08:35.820Z,3.30
2017-10-05T21:11:05.096Z,2.73
2017-10-05T21:13:33.578Z,2.90
2017-10-05T21:16:02.032Z,4.07
2017-10-05T21:18:30.527Z,3.80
2017-10-05T21:27:09.002Z,4.80
2017-10-05T21:29:49.738Z,9.33
2017-10-05T21:38:38.239Z,3.33
2017-10-05T21:44:18.795Z,3.60
2017-10-05T21:46:47.351Z,3.60
2017-10-05T21:49:15.865Z,4.70
2017-10-05T21:51:58.013Z,4.60
2017-10-05T21:57:23.889Z,5.33
2017-10-05T22:00:09.130Z,4.83
2017-10-05T22:02:39.220Z,5.23
2017-10-05T22:05:20.073Z,3.80
2017-10-05T22:10:58.606Z,4.33
2017-10-05T22:13:27.104Z,4.87
2017-10-05T22:15:57.099Z,4.47
2017-10-05T22:18:35.808Z,4.00
2017-10-05T22:21:04.376Z,4.63
2017-10-05T22:23:32.856Z,5.23
2017-10-05T22:31:18.697Z,3.57
2017-10-05T22:33:47.495Z,4.80
2017-10-05T22:36:15.987Z,4.20
2017-10-05T22:38:44.564Z,5.13
2017-10-05T22:41:13.985Z,4.70
2017-10-05T22:43:42.597Z,4.17
2017-10-05T22:46:11.078Z,4.43
2017-10-05T22:48:39.504Z,3.83
2017-10-05T22:51:09.506Z,4.73
2017-10-05T22:53:38.031Z,4.47
2017-10-05T22:56:06.452Z,3.43
2017-10-05T22:58:34.833Z,4.30
2017-10-05T23:01:04.771Z,5.03
2017-10-05T23:03:33.339Z,4.40
2017-10-05T23:06:02.181Z,3.80
2017-10-05T23:08:30.885Z,4.00
2017-10-05T23:10:59.318Z,4.07
2017-10-05T23:13:27.669Z,4.10
2017-10-05T23:15:56.190Z,4.23
2017-10-05T23:18:24.569Z,4.13
2017-10-05T23:20:52.955Z,3.60
2017-10-05T23:23:21.416Z,3.93
2017-10-05T23:25:49.874Z,4.07
2017-10-05T23:28:18.342Z,4.00
2017-10-05T23:30:46.699Z,3.80
2017-10-05T23:33:15.069Z,3.70
2017-10-05T23:35:43.742Z,4.60
2017-10-05T23:38:12.105Z,4.30
2017-10-05T23:40:40.551Z,4.40
2017-10-05T23:43:08.898Z,3.57
2017-10-05T23:45:37.255Z,3.60
2017-10-05T23:48:05.699Z,3.80
2017-10-05T23:50:34.079Z,3.30
2017-10-05T23:53:02.602Z,3.40
2017-10-05T23:55:30.945Z,3.60
2017-10-05T23:57:59.342Z,3.10
